Time;durP1;ratioP1;P1;durP2;ratioP2;P2;SDS_P1;SDS_P2;PMS_P1;PMS_P2;Temp;Humidity;BMP_temperature;BMP_pressure;BME280_temperature;BME280_humidity;BME280_pressure;Samples;Min_cycle;Max_cycle;Signal;HPM_P1;HPM_P2
2021/06/09 00:00:37;;;;;;;25.20;20.90;;;;;;;17.79;100.00;98842.39;3903670;75;43996;-24
2021/06/09 00:05:44;;;;;;;25.20;21.25;;;;;;;17.72;100.00;98842.84;3916995;75;44001;-24
2021/06/09 00:10:55;;;;;;;24.70;21.93;;;;;;;17.69;100.00;98832.36;3921579;75;44003;-22
2021/06/09 00:16:00;;;;;;;29.67;23.45;;;;;;;17.67;100.00;98827.62;3907452;74;42862;-24
2021/06/09 00:21:06;;;;;;;27.40;22.05;;;;;;;17.64;100.00;98822.02;3913864;75;43689;-23
2021/06/09 00:26:13;;;;;;;26.82;22.35;;;;;;;17.66;100.00;98818.59;3890340;75;42901;-24
2021/06/09 00:31:20;;;;;;;27.58;22.00;;;;;;;17.68;100.00;98817.05;3869785;76;43421;-23
2021/06/09 00:36:26;;;;;;;26.55;21.40;;;;;;;17.61;100.00;98825.16;3869792;76;44456;-23
2021/06/09 00:41:34;;;;;;;27.55;22.70;;;;;;;17.60;100.00;98826.70;3875258;75;43662;-24
2021/06/09 00:46:43;;;;;;;25.92;21.57;;;;;;;17.56;100.00;98818.09;3875446;75;43330;-24
2021/06/09 00:51:49;;;;;;;26.70;22.82;;;;;;;17.58;100.00;98817.91;3880141;75;43669;-23
2021/06/09 01:02:09;;;;;;;27.77;23.40;;;;;;;17.55;100.00;98822.70;4007643;73;27473;-22
2021/06/09 01:07:16;;;;;;;25.85;22.50;;;;;;;17.34;100.00;98829.01;3925572;73;44043;-23
2021/06/09 01:12:22;;;;;;;31.60;24.40;;;;;;;17.27;100.00;98843.09;3922397;73;43108;-23
2021/06/09 01:17:29;;;;;;;32.67;24.75;;;;;;;17.14;100.00;98839.70;3927350;73;44154;-23
2021/06/09 01:22:36;;;;;;;33.23;26.60;;;;;;;17.07;100.00;98844.24;3824200;76;43286;-22
2021/06/09 01:27:43;;;;;;;27.90;23.67;;;;;;;17.07;100.00;98845.07;3900198;75;43384;-22
2021/06/09 01:32:50;;;;;;;31.97;25.50;;;;;;;17.06;100.00;98842.55;3919754;75;43054;-23
2021/06/09 01:37:56;;;;;;;31.48;24.10;;;;;;;16.96;100.00;98851.02;3921532;73;44291;-23
2021/06/09 01:43:03;;;;;;;31.15;24.23;;;;;;;16.80;100.00;98849.34;3931100;75;44033;-25
2021/06/09 01:48:12;;;;;;;31.48;23.10;;;;;;;16.61;100.00;98844.84;3925737;75;43059;-25
2021/06/09 01:53:18;;;;;;;23.85;16.95;;;;;;;16.59;100.00;98848.27;3914778;73;43759;-26
2021/06/09 01:58:26;;;;;;;19.50;15.80;;;;;;;16.52;100.00;98836.47;3931747;75;43429;-27
2021/06/09 02:03:32;;;;;;;27.75;22.17;;;;;;;16.50;100.00;98833.09;3904472;75;42986;-27
2021/06/09 02:08:39;;;;;;;32.08;23.10;;;;;;;16.55;100.00;98838.79;3897099;74;42702;-27
2021/06/09 02:13:47;;;;;;;28.23;23.00;;;;;;;16.57;100.00;98836.73;3900502;75;43388;-27
2021/06/09 02:18:53;;;;;;;32.75;24.92;;;;;;;16.59;100.00;98837.38;3893810;74;43378;-26
2021/06/09 02:23:59;;;;;;;33.83;24.50;;;;;;;16.63;100.00;98844.14;3893704;74;43451;-26
2021/06/09 02:29:07;;;;;;;25.57;22.32;;;;;;;16.60;100.00;98837.72;3827265;77;43677;-26
2021/06/09 02:34:16;;;;;;;31.45;24.45;;;;;;;16.35;100.00;98835.80;3893762;75;44446;-27
2021/06/09 02:39:25;;;;;;;30.65;23.07;;;;;;;16.35;100.00;98824.92;3881996;74;43721;-26
2021/06/09 02:44:31;;;;;;;32.90;26.70;;;;;;;16.36;100.00;98809.47;3909243;75;43503;-26
2021/06/09 02:49:41;;;;;;;39.00;27.62;;;;;;;16.33;100.00;98796.58;3889343;75;43341;-26
2021/06/09 03:00:06;;;;;;;31.55;25.05;;;;;;;16.40;100.00;98797.19;4004619;72;448319;-27
2021/06/09 03:10:48;;;;;;;28.75;24.57;;;;;;;16.42;100.00;98807.34;4013208;73;27199;-26
2021/06/09 03:21:13;;;;;;;29.40;24.25;;;;;;;16.36;100.00;98806.75;3992490;73;27172;-26
2021/06/09 03:31:37;;;;;;;35.43;26.20;;;;;;;16.26;100.00;98805.67;4003239;72;27250;-25
2021/06/09 03:36:44;;;;;;;32.98;25.35;;;;;;;16.21;100.00;98802.16;3938077;74;44011;-26
2021/06/09 03:41:53;;;;;;;31.12;24.87;;;;;;;16.17;100.00;98803.56;3940184;74;43424;-27
2021/06/09 03:47:01;;;;;;;33.78;26.68;;;;;;;16.17;100.00;98806.28;3942209;74;43131;-26
2021/06/09 03:52:10;;;;;;;30.23;24.45;;;;;;;16.17;100.00;98800.34;3950309;74;43671;-26
2021/06/09 03:57:18;;;;;;;27.05;23.35;;;;;;;16.18;100.00;98802.53;3947056;74;44572;-26
2021/06/09 04:07:39;;;;;;;28.80;24.10;;;;;;;16.29;100.00;98795.25;4003956;73;27690;-28
2021/06/09 04:12:46;;;;;;;31.20;23.83;;;;;;;16.23;100.00;98800.11;3943741;74;44002;-27
2021/06/09 04:17:54;;;;;;;32.67;23.52;;;;;;;16.29;100.00;98800.70;3955197;74;43575;-27
2021/06/09 04:23:01;;;;;;;29.45;21.77;;;;;;;16.28;100.00;98800.89;3943551;74;43180;-27
2021/06/09 04:28:09;;;;;;;25.32;20.92;;;;;;;16.26;100.00;98801.09;3943713;74;44368;-27
2021/06/09 04:33:15;;;;;;;26.07;21.25;;;;;;;16.23;100.00;98795.20;3940345;74;43771;-27
2021/06/09 04:38:21;;;;;;;28.60;22.50;;;;;;;16.24;100.00;98792.28;3945589;74;44052;-27
2021/06/09 04:43:27;;;;;;;29.30;22.80;;;;;;;16.24;100.00;98798.22;3955547;74;43681;-27
2021/06/09 04:48:34;;;;;;;28.07;21.40;;;;;;;16.26;100.00;98794.30;3942699;74;43733;-27
2021/06/09 04:53:40;;;;;;;29.35;23.45;;;;;;;16.24;100.00;98801.80;3949724;74;44099;-27
2021/06/09 04:58:46;;;;;;;29.12;22.02;;;;;;;16.33;100.00;98806.63;3931647;74;43690;-27
2021/06/09 05:03:52;;;;;;;27.55;21.50;;;;;;;16.30;100.00;98811.07;3925331;74;43589;-27
2021/06/09 05:08:58;;;;;;;28.05;22.45;;;;;;;16.40;100.00;98810.26;3909490;74;44001;-27
2021/06/09 05:14:07;;;;;;;28.17;22.67;;;;;;;16.48;100.00;98820.20;3818888;77;43439;-23
2021/06/09 05:19:15;;;;;;;30.37;24.02;;;;;;;16.50;100.00;98816.77;3904740;74;43466;-24
2021/06/09 05:24:26;;;;;;;29.85;24.77;;;;;;;16.53;100.00;98815.02;3916758;74;44691;-23
2021/06/09 05:29:35;;;;;;;26.77;23.73;;;;;;;16.70;100.00;98818.34;3910743;74;44145;-23
2021/06/09 05:34:42;;;;;;;31.05;25.57;;;;;;;16.82;100.00;98822.79;3915666;74;44126;-23
2021/06/09 05:39:49;;;;;;;33.23;27.02;;;;;;;17.09;100.00;98816.31;3916856;74;43696;-23
2021/06/09 05:44:56;;;;;;;32.63;26.45;;;;;;;17.30;100.00;98818.70;3817225;77;44150;-23
2021/06/09 05:50:11;;;;;;;31.95;26.55;;;;;;;17.35;100.00;98813.50;3906657;74;44078;-23
2021/06/09 05:55:18;;;;;;;32.73;27.15;;;;;;;17.41;100.00;98824.98;3921295;74;43246;-23
2021/06/09 06:00:26;;;;;;;33.53;25.68;;;;;;;17.51;100.00;98821.41;3910984;74;43892;-23
2021/06/09 06:05:34;;;;;;;31.23;24.57;;;;;;;17.63;100.00;98817.64;3913828;74;43682;-23
2021/06/09 06:10:41;;;;;;;31.00;26.07;;;;;;;17.66;100.00;98821.84;3906429;74;44112;-24
2021/06/09 06:15:47;;;;;;;29.27;25.00;;;;;;;17.75;100.00;98830.72;3929297;74;44012;-22
2021/06/09 06:20:54;;;;;;;32.63;26.73;;;;;;;17.94;100.00;98835.97;3904584;74;43544;-22
2021/06/09 06:26:00;;;;;;;33.38;27.48;;;;;;;18.17;100.00;98839.30;3929903;74;43218;-22
2021/06/09 06:31:11;;;;;;;29.87;24.67;;;;;;;18.31;100.00;98840.24;3931093;74;43330;-22
2021/06/09 06:36:20;;;;;;;29.90;26.05;;;;;;;18.41;100.00;98844.48;3913806;74;44063;-22
2021/06/09 06:41:29;;;;;;;28.35;25.15;;;;;;;18.56;100.00;98840.25;3896691;74;43746;-22
2021/06/09 06:46:35;;;;;;;27.52;24.60;;;;;;;18.68;100.00;98839.16;3894002;74;43375;-22
2021/06/09 06:51:42;;;;;;;27.05;24.20;;;;;;;18.75;100.00;98849.56;3891302;74;43768;-22
2021/06/09 06:56:50;;;;;;;30.23;24.57;;;;;;;18.76;100.00;98845.26;3900069;74;43714;-22
2021/06/09 07:01:57;;;;;;;30.30;26.12;;;;;;;18.79;100.00;98850.31;3880924;74;43976;-22
2021/06/09 07:07:04;;;;;;;29.00;25.80;;;;;;;18.82;100.00;98853.69;3916116;74;43500;-23
2021/06/09 07:12:11;;;;;;;28.02;25.00;;;;;;;18.98;100.00;98860.20;3911075;74;43770;-23
2021/06/09 07:17:20;;;;;;;31.33;25.65;;;;;;;19.13;100.00;98849.09;3916271;75;43297;-23
2021/06/09 07:22:26;;;;;;;28.75;25.45;;;;;;;19.39;100.00;98846.92;3923232;74;42902;-23
2021/06/09 07:27:35;;;;;;;25.35;22.15;;;;;;;19.32;100.00;98848.82;3926273;75;43678;-23
2021/06/09 07:32:44;;;;;;;28.10;24.30;;;;;;;19.51;100.00;98860.83;3927600;75;44027;-23
2021/06/09 07:37:52;;;;;;;27.98;24.35;;;;;;;19.70;100.00;98859.13;3918159;74;43408;-23
2021/06/09 07:43:01;;;;;;;27.52;23.18;;;;;;;19.70;100.00;98860.50;3820188;77;43058;-23
2021/06/09 07:48:10;;;;;;;25.05;22.37;;;;;;;19.66;100.00;98867.45;3912139;74;43680;-23
2021/06/09 07:53:17;;;;;;;25.23;22.62;;;;;;;19.73;100.00;98870.70;3926595;75;43506;-23
2021/06/09 07:58:28;;;;;;;26.30;23.50;;;;;;;19.83;100.00;98868.38;3923042;75;43447;-23
2021/06/09 08:03:36;;;;;;;23.83;21.37;;;;;;;20.01;100.00;98872.73;3905120;75;43712;-23
2021/06/09 08:08:43;;;;;;;25.25;22.65;;;;;;;19.98;100.00;98869.05;3919956;75;43466;-23
2021/06/09 08:13:51;;;;;;;23.55;21.20;;;;;;;19.93;100.00;98870.23;3911247;75;43391;-23
2021/06/09 08:18:57;;;;;;;25.85;23.15;;;;;;;20.15;100.00;98870.81;3907253;74;43716;-23
2021/06/09 08:24:06;;;;;;;25.35;22.65;;;;;;;20.36;100.00;98877.62;3903535;74;44060;-22
2021/06/09 08:29:12;;;;;;;26.42;21.57;;;;;;;20.62;100.00;98883.04;3815050;77;44015;-21
2021/06/09 08:34:18;;;;;;;24.32;21.82;;;;;;;20.92;100.00;98883.89;3919944;75;44053;-22
2021/06/09 08:44:41;;;;;;;22.27;19.87;;;;;;;21.00;100.00;98883.31;4018829;73;27686;-20
2021/06/09 08:49:48;;;;;;;24.27;21.75;;;;;;;20.96;100.00;98884.83;3957599;73;44092;-23
2021/06/09 08:54:53;;;;;;;22.93;20.62;;;;;;;21.31;100.00;98883.89;3963376;73;43328;-23
2021/06/09 09:00:01;;;;;;;23.67;21.20;;;;;;;21.41;100.00;98880.68;3970993;73;44494;-23
2021/06/09 09:10:08;;;;;;;21.85;19.25;;;;;;;21.39;100.00;98880.05;3998809;73;30584;-21
2021/06/09 09:15:15;;;;;;;21.60;19.35;;;;;;;21.42;100.00;98880.13;3942758;74;43630;-21
2021/06/09 09:20:25;;;;;;;20.40;18.35;;;;;;;21.44;100.00;98882.98;3938634;74;44168;-22
2021/06/09 09:25:32;;;;;;;21.27;19.07;;;;;;;21.54;100.00;98883.33;3938091;74;44227;-22
2021/06/09 09:35:52;;;;;;;19.67;17.77;;;;;;;21.48;100.00;98873.78;3994170;73;27800;-21
2021/06/09 09:41:07;;;;;;;20.35;18.30;;;;;;;21.67;100.00;98873.36;3925966;73;43668;-21
2021/06/09 09:46:17;;;;;;;19.07;17.17;;;;;;;22.04;100.00;98878.97;3920059;75;43783;-22
2021/06/09 09:51:24;;;;;;;20.15;18.15;;;;;;;21.99;100.00;98874.13;3933236;75;43369;-22
2021/06/09 09:56:32;;;;;;;19.48;17.57;;;;;;;22.24;100.00;98871.89;3921869;73;43835;-22
2021/06/09 10:01:39;;;;;;;16.75;15.03;;;;;;;22.23;100.00;98856.48;3927403;75;43436;-21
2021/06/09 10:06:49;;;;;;;15.75;14.15;;;;;;;22.51;100.00;98852.43;3930551;73;44028;-22
2021/06/09 10:11:57;;;;;;;19.90;17.62;;;;;;;22.81;100.00;98849.44;3854398;76;44183;-21
2021/06/09 10:17:05;;;;;;;18.37;16.55;;;;;;;22.50;100.00;98853.50;3917079;75;44094;-23
2021/06/09 10:22:15;;;;;;;17.37;15.68;;;;;;;22.20;100.00;98847.88;3928532;75;43841;-21
2021/06/09 10:27:34;;;;;;;17.12;15.43;;;;;;;22.54;100.00;98842.89;3933819;73;44047;-21
2021/06/09 10:32:40;;;;;;;17.50;15.70;;;;;;;22.75;100.00;98839.69;3926163;75;44000;-23
2021/06/09 10:37:47;;;;;;;16.73;14.93;;;;;;;22.87;100.00;98832.05;3888541;74;43687;-23
2021/06/09 10:48:14;;;;;;;13.95;12.55;;;;;;;23.31;100.00;98834.09;3990664;72;27600;-21
2021/06/09 10:53:20;;;;;;;14.38;12.98;;;;;;;23.67;100.00;98835.52;3924003;73;43287;-23
2021/06/09 10:58:26;;;;;;;14.87;13.38;;;;;;;23.95;100.00;98824.38;3930072;73;44059;-21
2021/06/09 11:03:34;;;;;;;15.40;13.90;;;;;;;23.95;100.00;98829.88;3905043;75;43157;-22
2021/06/09 11:08:41;;;;;;;15.45;13.95;;;;;;;23.64;100.00;98833.23;3916906;73;44063;-22
2021/06/09 11:13:48;;;;;;;14.55;13.15;;;;;;;23.86;100.00;98834.89;3926014;75;44148;-21
2021/06/09 11:18:55;;;;;;;14.38;12.98;;;;;;;23.81;100.00;98832.03;3931927;75;44451;-21
2021/06/09 11:24:11;;;;;;;13.13;11.93;;;;;;;23.88;100.00;98830.52;3924931;75;43677;-21
2021/06/09 11:29:31;;;;;;;12.15;10.95;;;;;;;24.00;98.78;98827.26;3918546;75;44065;-21
2021/06/09 11:34:55;;;;;;;11.85;10.65;;;;;;;24.06;97.40;98824.09;3928239;73;43688;-22
2021/06/09 11:40:02;;;;;;;10.90;9.90;;;;;;;24.13;96.52;98816.56;3942997;73;43402;-22
2021/06/09 11:45:33;;;;;;;9.80;8.90;;;;;;;24.48;97.35;98808.78;3902313;74;44734;-21
2021/06/09 11:50:33;;;;;;;9.83;8.93;;;;;;;24.59;89.87;98807.92;3908283;75;44008;-22
2021/06/09 11:55:40;;;;;;;11.38;10.10;;;;;;;24.62;82.75;98801.93;3910869;74;44628;-22
2021/06/09 12:01:05;;;;;;;10.70;9.70;;;;;;;24.96;90.67;98803.97;3899121;75;43398;-21
2021/06/09 12:06:17;;;;;;;11.10;9.98;;;;;;;25.33;89.42;98794.45;3837744;75;43404;-23
2021/06/09 12:11:23;;;;;;;10.68;9.68;;;;;;;25.65;89.13;98787.01;3896269;74;43694;-23
2021/06/09 12:16:28;;;;;;;10.60;9.63;;;;;;;25.68;86.42;98779.61;3906721;75;43338;-23
2021/06/09 12:21:34;;;;;;;12.93;10.25;;;;;;;25.68;85.24;98779.61;3890987;74;43962;-23
2021/06/09 12:26:50;;;;;;;10.38;9.38;;;;;;;25.73;86.40;98772.78;3906980;74;44010;-23
2021/06/09 12:31:58;;;;;;;11.03;10.03;;;;;;;25.77;87.45;98776.72;3884437;75;44118;-23
2021/06/09 12:37:10;;;;;;;10.65;9.65;;;;;;;25.44;81.05;98770.12;3902649;74;44160;-22
2021/06/09 12:42:17;;;;;;;10.08;9.13;;;;;;;25.55;84.83;98762.84;3900964;75;44014;-23
2021/06/09 12:47:32;;;;;;;10.55;9.60;;;;;;;25.82;84.97;98757.45;3916188;74;44162;-23
2021/06/09 12:52:38;;;;;;;9.95;9.05;;;;;;;26.25;78.98;98759.75;3915150;74;44074;-23
2021/06/09 12:57:46;;;;;;;10.32;9.33;;;;;;;25.57;80.44;98762.61;3906514;75;43660;-23
2021/06/09 13:02:54;;;;;;;9.80;8.90;;;;;;;25.33;84.34;98767.70;3909427;74;43829;-23
2021/06/09 13:08:09;;;;;;;9.38;8.55;;;;;;;25.33;85.48;98766.31;3912718;74;43349;-23
2021/06/09 13:13:17;;;;;;;9.55;8.55;;;;;;;25.49;90.70;98770.75;3913648;75;43358;-23
2021/06/09 13:18:37;;;;;;;9.00;8.10;;;;;;;25.41;91.22;98765.63;3906673;75;43464;-23
2021/06/09 13:23:44;;;;;;;9.28;8.48;;;;;;;25.77;86.90;98762.06;3895844;74;44060;-23
2021/06/09 13:28:51;;;;;;;9.48;8.50;;;;;;;26.24;82.14;98747.02;3911249;75;43467;-23
2021/06/09 13:33:57;;;;;;;9.13;8.20;;;;;;;26.64;79.12;98740.30;3903062;75;44109;-23
2021/06/09 13:39:08;;;;;;;8.13;7.42;;;;;;;26.93;75.31;98731.80;3915683;74;43385;-23
2021/06/09 13:44:17;;;;;;;8.68;7.97;;;;;;;27.23;70.88;98729.88;3906596;74;44005;-23
2021/06/09 13:49:34;;;;;;;7.70;7.10;;;;;;;27.84;66.69;98722.30;3913475;75;43683;-23
2021/06/09 13:54:42;;;;;;;7.35;6.75;;;;;;;28.17;66.87;98716.69;3902865;74;44076;-21
2021/06/09 13:59:50;;;;;;;7.67;6.97;;;;;;;28.68;65.84;98707.71;3911640;75;44044;-22
2021/06/09 14:05:07;;;;;;;7.47;6.80;;;;;;;28.85;60.70;98699.17;3912122;75;44103;-22
2021/06/09 14:10:18;;;;;;;8.58;7.87;;;;;;;27.88;63.65;98699.05;3908247;74;43060;-22
2021/06/09 14:15:27;;;;;;;8.50;7.67;;;;;;;27.01;67.64;98700.91;3908490;74;44107;-22
2021/06/09 14:20:37;;;;;;;8.10;7.35;;;;;;;26.75;68.00;98693.72;3904869;74;43386;-23
2021/06/09 14:25:45;;;;;;;7.28;6.60;;;;;;;27.57;70.16;98701.12;3909169;74;44007;-22
2021/06/09 14:30:53;;;;;;;7.35;6.65;;;;;;;27.54;65.70;98698.88;3909290;75;43369;-22
2021/06/09 14:36:04;;;;;;;7.12;6.60;;;;;;;27.23;68.53;98693.06;3902658;75;44061;-22
2021/06/09 14:41:20;;;;;;;7.60;7.00;;;;;;;27.01;69.48;98695.94;3919879;74;43223;-23
2021/06/09 14:46:28;;;;;;;6.97;6.40;;;;;;;27.66;66.70;98697.27;3888963;74;43350;-23
2021/06/09 14:51:34;;;;;;;7.42;6.53;;;;;;;28.15;64.08;98692.05;3898096;74;43984;-23
2021/06/09 14:56:42;;;;;;;7.45;6.85;;;;;;;28.68;61.91;98684.15;3899219;74;44490;-22
2021/06/09 15:01:48;;;;;;;7.60;6.90;;;;;;;27.86;62.42;98686.88;3894907;75;43419;-22
2021/06/09 15:06:54;;;;;;;7.28;6.67;;;;;;;27.26;66.21;98684.25;3897182;74;43722;-22
2021/06/09 15:12:00;;;;;;;7.58;6.83;;;;;;;26.81;68.15;98671.70;3895400;74;43505;-22
2021/06/09 15:17:07;;;;;;;7.17;6.58;;;;;;;26.61;68.18;98676.73;3897490;74;43361;-22
2021/06/09 15:22:13;;;;;;;8.18;6.78;;;;;;;26.38;70.87;98666.83;3915146;74;44411;-22
2021/06/09 15:27:20;;;;;;;7.55;6.85;;;;;;;25.87;68.93;98667.02;3900841;75;43378;-22
2021/06/09 15:32:27;;;;;;;7.58;6.87;;;;;;;25.93;69.47;98670.68;3895858;75;44046;-22
2021/06/09 15:37:36;;;;;;;8.15;7.35;;;;;;;26.66;65.63;98671.80;3896473;74;44006;-22
2021/06/09 15:42:42;;;;;;;7.62;6.92;;;;;;;26.69;63.10;98671.84;3911504;75;44052;-22
2021/06/09 15:47:51;;;;;;;7.92;7.20;;;;;;;27.47;59.98;98678.35;3892600;74;43375;-22
2021/06/09 15:52:57;;;;;;;6.87;6.28;;;;;;;26.67;64.80;98679.00;3909886;74;43311;-22
2021/06/09 15:58:04;;;;;;;7.65;6.95;;;;;;;26.29;67.39;98682.17;3890805;75;43255;-22
2021/06/09 16:03:11;;;;;;;7.03;6.42;;;;;;;25.76;66.78;98678.98;3899960;75;44157;-22
2021/06/09 16:08:19;;;;;;;8.00;7.30;;;;;;;26.14;68.29;98682.83;3900254;74;44045;-22
2021/06/09 16:13:28;;;;;;;8.18;7.37;;;;;;;26.57;65.97;98683.89;3892076;75;43987;-22
2021/06/09 16:18:34;;;;;;;8.70;7.92;;;;;;;26.79;66.16;98685.80;3902283;75;43473;-22
2021/06/09 16:23:42;;;;;;;8.88;8.08;;;;;;;26.65;66.22;98685.89;3907834;74;43665;-22
2021/06/09 16:28:49;;;;;;;9.15;8.35;;;;;;;26.22;67.45;98689.30;3905783;75;43356;-22
2021/06/09 16:33:55;;;;;;;9.40;8.58;;;;;;;25.54;71.40;98697.19;3900841;75;44167;-22
2021/06/09 16:39:01;;;;;;;9.43;8.53;;;;;;;24.94;74.75;98697.27;3899453;74;42757;-22
2021/06/09 16:44:08;;;;;;;8.75;7.95;;;;;;;24.30;82.99;98695.52;3891869;75;44412;-21
2021/06/09 16:49:16;;;;;;;10.32;8.83;;;;;;;24.15;83.50;98701.00;3900522;74;42877;-22
2021/06/09 16:54:27;;;;;;;8.73;7.92;;;;;;;24.18;83.66;98694.72;3920886;73;44408;-22
2021/06/09 17:04:45;;;;;;;9.40;8.50;;;;;;;23.94;83.97;98683.73;3969547;73;27119;-21
2021/06/09 17:15:03;;;;;;;9.68;8.78;;;;;;;23.33;85.76;98691.73;3956238;73;27569;-20
2021/06/09 17:20:12;;;;;;;9.65;8.85;;;;;;;23.11;88.19;98694.73;3894035;75;43692;-21
2021/06/09 17:25:18;;;;;;;9.68;8.68;;;;;;;22.82;88.80;98700.86;3917091;74;43340;-22
2021/06/09 17:35:38;;;;;;;9.85;8.55;;;;;;;22.88;89.18;98708.70;4009041;73;27132;-20
2021/06/09 17:40:44;;;;;;;11.00;9.90;;;;;;;22.89;91.76;98707.11;3963127;73;43894;-23
2021/06/09 17:45:50;;;;;;;11.53;10.43;;;;;;;22.63;100.00;98706.97;3962854;73;43378;-22
2021/06/09 17:50:59;;;;;;;12.07;10.98;;;;;;;22.27;100.00;98704.03;3960693;75;44030;-22
2021/06/09 17:56:08;;;;;;;11.65;10.53;;;;;;;22.13;100.00;98701.99;3969095;73;43948;-22
2021/06/09 18:01:35;;;;;;;11.57;10.48;;;;;;;21.83;100.00;98706.86;3970948;73;43678;-23
2021/06/09 18:06:32;;;;;;;11.78;10.68;;;;;;;21.65;100.00;98703.56;3961982;73;43690;-21
2021/06/09 18:11:38;;;;;;;10.85;9.75;;;;;;;21.46;100.00;98702.66;3959215;73;44196;-21
2021/06/09 18:16:45;;;;;;;10.23;9.28;;;;;;;21.32;100.00;98701.14;3970257;73;44560;-22
2021/06/09 18:21:51;;;;;;;10.03;9.13;;;;;;;21.40;100.00;98701.66;3968596;73;44039;-22
2021/06/09 18:26:57;;;;;;;9.90;9.00;;;;;;;21.49;100.00;98716.48;3964997;73;43109;-22
2021/06/09 18:32:06;;;;;;;9.90;9.00;;;;;;;21.54;100.00;98707.02;3968597;73;44020;-22
2021/06/09 18:37:12;;;;;;;10.15;9.25;;;;;;;21.58;100.00;98701.95;3968987;73;44045;-22
2021/06/09 18:42:20;;;;;;;9.95;8.95;;;;;;;21.57;100.00;98710.69;3963457;73;43431;-22
2021/06/09 18:47:28;;;;;;;11.63;10.00;;;;;;;21.23;100.00;98715.64;3955170;74;44035;-22
2021/06/09 18:52:36;;;;;;;11.73;10.58;;;;;;;21.06;100.00;98719.47;3961307;73;44045;-22
2021/06/09 18:57:43;;;;;;;12.33;11.12;;;;;;;20.54;100.00;98734.08;3975574;74;43492;-22
2021/06/09 19:08:06;;;;;;;13.55;12.15;;;;;;;20.35;100.00;98736.39;3970300;72;27181;-24
2021/06/09 19:18:25;;;;;;;14.28;12.78;;;;;;;19.57;100.00;98738.91;3953160;73;27133;-23
2021/06/09 19:23:32;;;;;;;15.00;12.98;;;;;;;19.28;100.00;98742.38;3905068;74;43984;-23
2021/06/09 19:28:39;;;;;;;12.65;11.45;;;;;;;19.20;100.00;98740.69;3906677;74;43689;-23
2021/06/09 19:33:46;;;;;;;14.05;12.55;;;;;;;19.33;100.00;98749.42;3893544;74;43821;-24
2021/06/09 19:38:54;;;;;;;14.70;13.20;;;;;;;19.28;100.00;98757.94;3910178;74;43749;-24
2021/06/09 19:44:02;;;;;;;15.28;13.78;;;;;;;19.16;100.00;98753.61;3906528;74;44008;-23
2021/06/09 19:49:09;;;;;;;14.65;13.15;;;;;;;19.27;100.00;98749.42;3900801;75;44129;-23
2021/06/09 19:54:15;;;;;;;15.15;13.62;;;;;;;19.29;100.00;98751.39;3902825;75;43097;-23
2021/06/09 19:59:21;;;;;;;15.68;13.65;;;;;;;19.26;100.00;98745.83;3899176;74;43388;-24
2021/06/09 20:04:28;;;;;;;15.80;14.20;;;;;;;19.30;100.00;98740.78;3821029;75;44082;-24
2021/06/09 20:09:34;;;;;;;14.15;12.75;;;;;;;19.28;100.00;98747.83;3912187;74;43342;-24
2021/06/09 20:14:40;;;;;;;16.70;14.95;;;;;;;19.11;100.00;98737.02;3892422;74;44003;-23
2021/06/09 20:19:47;;;;;;;15.15;13.58;;;;;;;18.95;100.00;98737.73;3899320;75;43698;-23
2021/06/09 20:25:04;;;;;;;14.58;13.10;;;;;;;18.59;100.00;98735.63;3895289;75;43498;-23
2021/06/09 20:30:03;;;;;;;14.95;13.35;;;;;;;18.38;100.00;98731.17;3893327;75;43708;-23
2021/06/09 20:35:11;;;;;;;15.72;13.93;;;;;;;18.51;100.00;98735.81;3901121;75;43417;-23
2021/06/09 20:40:18;;;;;;;17.25;15.35;;;;;;;18.43;100.00;98742.29;3900424;74;44558;-23
2021/06/09 20:45:25;;;;;;;17.00;15.28;;;;;;;18.36;100.00;98748.26;3898238;74;44091;-23
2021/06/09 20:50:31;;;;;;;15.85;14.25;;;;;;;18.23;100.00;98740.84;3900850;75;44078;-23
2021/06/09 20:55:39;;;;;;;16.73;14.70;;;;;;;17.99;100.00;98750.39;3899258;75;44059;-21
2021/06/09 21:00:46;;;;;;;15.25;13.60;;;;;;;17.85;100.00;98762.54;3897219;75;43417;-23
2021/06/09 21:05:52;;;;;;;14.98;13.35;;;;;;;17.90;100.00;98767.92;3903704;75;44000;-23
2021/06/09 21:11:00;;;;;;;16.80;15.08;;;;;;;17.88;100.00;98759.92;3891743;74;43436;-23
2021/06/09 21:16:09;;;;;;;15.58;13.72;;;;;;;17.75;100.00;98768.05;3898549;74;44816;-23
2021/06/09 21:21:16;;;;;;;19.10;17.10;;;;;;;17.72;100.00;98766.54;3865502;74;43678;-23
2021/06/09 21:26:22;;;;;;;15.93;14.20;;;;;;;17.66;100.00;98775.53;3864604;75;42973;-23
2021/06/09 21:31:28;;;;;;;18.92;17.00;;;;;;;17.67;100.00;98771.23;3869377;75;44836;-24
2021/06/09 21:36:36;;;;;;;18.30;16.23;;;;;;;17.67;100.00;98773.13;3871928;75;43060;-23
2021/06/09 21:41:43;;;;;;;17.57;15.70;;;;;;;17.60;100.00;98777.16;3874487;75;44069;-24
2021/06/09 21:46:49;;;;;;;17.75;15.98;;;;;;;17.55;100.00;98781.84;3867281;74;43427;-24
2021/06/09 21:51:55;;;;;;;19.65;16.23;;;;;;;17.58;100.00;98774.32;3868841;74;44048;-23
2021/06/09 21:57:02;;;;;;;19.27;16.20;;;;;;;17.49;100.00;98777.70;3871234;75;43406;-23
2021/06/09 22:02:09;;;;;;;18.27;16.20;;;;;;;17.39;100.00;98780.25;3873542;75;43123;-23
2021/06/09 22:07:16;;;;;;;18.40;16.40;;;;;;;17.33;100.00;98776.11;3861681;75;43740;-22
2021/06/09 22:12:22;;;;;;;18.73;16.82;;;;;;;17.13;100.00;98776.75;3865768;75;44185;-23
2021/06/09 22:17:28;;;;;;;16.57;14.78;;;;;;;17.01;100.00;98769.64;3871713;74;43985;-23
2021/06/09 22:22:34;;;;;;;20.97;17.98;;;;;;;16.96;100.00;98769.91;3876372;74;44083;-23
2021/06/09 22:27:41;;;;;;;16.48;14.78;;;;;;;16.92;100.00;98766.17;3874681;74;42891;-24
2021/06/09 22:32:49;;;;;;;17.17;15.38;;;;;;;16.92;100.00;98762.09;3869478;75;43354;-23
2021/06/09 22:37:56;;;;;;;15.90;14.30;;;;;;;16.89;100.00;98765.19;3788787;78;43390;-24
2021/06/09 22:43:04;;;;;;;17.30;15.48;;;;;;;16.83;100.00;98764.62;3871550;75;43329;-23
2021/06/09 22:48:11;;;;;;;16.70;15.00;;;;;;;16.79;100.00;98761.95;3872921;74;44515;-23
2021/06/09 22:53:17;;;;;;;22.37;17.87;;;;;;;16.75;100.00;98757.41;3869917;75;43280;-23
2021/06/09 22:58:24;;;;;;;14.33;12.82;;;;;;;16.73;100.00;98765.45;3865581;74;43694;-23
2021/06/09 23:03:30;;;;;;;17.35;13.60;;;;;;;16.71;100.00;98765.63;3867552;75;43656;-23
2021/06/09 23:08:38;;;;;;;18.60;16.67;;;;;;;16.69;100.00;98760.06;3882141;75;44568;-23
2021/06/09 23:13:45;;;;;;;17.95;16.05;;;;;;;16.57;100.00;98760.56;3868467;75;44077;-23
2021/06/09 23:18:50;;;;;;;17.85;15.68;;;;;;;16.53;100.00;98761.14;3865429;75;44617;-23
2021/06/09 23:23:56;;;;;;;18.85;16.35;;;;;;;16.51;100.00;98752.33;3866921;74;43226;-23
2021/06/09 23:29:02;;;;;;;19.23;16.07;;;;;;;16.47;100.00;98758.67;3872964;74;44099;-23
2021/06/09 23:34:08;;;;;;;17.60;14.90;;;;;;;16.49;100.00;98760.69;3866359;75;43983;-23
2021/06/09 23:39:14;;;;;;;16.32;14.50;;;;;;;16.46;100.00;98748.83;3874011;75;43444;-23
2021/06/09 23:44:20;;;;;;;15.15;13.55;;;;;;;16.42;100.00;98751.59;3867933;75;43678;-23
2021/06/09 23:49:36;;;;;;;19.23;15.88;;;;;;;16.39;100.00;98754.19;3870929;75;43360;-23
2021/06/09 23:54:34;;;;;;;24.00;17.82;;;;;;;16.36;100.00;98751.02;3867622;74;43474;-23
2021/06/09 23:59:40;;;;;;;18.62;16.30;;;;;;;16.31;100.00;98753.77;3868737;74;44052;-23
